Flight Track Log - Related Links

Times and Time Zones

All times are in EST time to prevent confusion due to time zone crossing. See the N321FU flight status page for this flight to view local times or setup timezone preferences in your user account.

Time Position Orientation Groundspeed Altitude Reporting Facility
EST Latitude Longitude Course Direction KTS MPH feet Rate Location/Type
Mon 02:21:51 PM 27.0350 -80.4361 344° North 177 204 5,400  Level Miami Center
Mon 02:22:51 PM 27.0847 -80.4519 344° North 171 197 5,600 100 Climbing Miami Center
Mon 02:23:51 PM 27.1303 -80.4672 343° North 165 190 5,600  Level Miami Center
Mon 02:24:51 PM 27.1758 -80.4803 346° North 165 190 5,600  Level Miami Center
Mon 02:25:51 PM 27.2172 -80.4933 344° North 165 190 5,600  Level Miami Center
Mon 02:26:51 PM 27.2689 -80.5114 343° North 165 190 5,600 -50 Level Miami Center
Mon 02:27:51 PM 27.3144 -80.5244 346° North 165 190 5,500  Descending Miami Center
Mon 02:28:51 PM 27.3622 -80.5422 342° North 165 190 5,600  Climbing Miami Center
Mon 02:29:51 PM 27.4036 -80.5553 344° North 165 190 5,500 -50 Descending Miami Center
Mon 02:30:51 PM 27.4492 -80.5683 346° North 165 190 5,500  Level Miami Center
Mon 02:31:51 PM 27.5031 -80.5794 350° North 165 190 5,500  Level Miami Center
Mon 02:32:51 PM 27.5508 -80.5881 351° North 165 190 5,500  Level Miami Center
Mon 02:33:51 PM 27.5986 -80.5967 351° North 165 190 5,500  Level Miami Center
Mon 02:34:51 PM 27.6444 -80.5983 358° North 170 196 5,500  Level Miami Center
Mon 02:35:51 PM 27.6967 -80.6047 354° North 170 196 5,500  Level Miami Center
Mon 02:36:51 PM 27.7444 -80.6131 351° North 175 201 5,500  Level Miami Center
Mon 02:37:51 PM 27.7944 -80.6194 354° North 175 201 5,500  Level Miami Center
Mon 02:38:51 PM 27.8381 -80.6233 355° North 180 207 5,500  Level Miami Center
Mon 02:39:51 PM 27.8858 -80.6367 346° North 175 201 5,500  Level Miami Center
Mon 02:40:56 PM 27.9500 -80.6500 350° North 181 208 5,500  Level Orlando TRACON
Mon 02:41:56 PM 28.0000 -80.6667 344° North 198 228 5,500  Level Orlando TRACON
Mon 02:42:56 PM 28.0500 -80.6667 360° North 175 201 5,500  Level Orlando TRACON
Mon 02:43:51 PM 28.0833 -80.6667 360° North 173 199 5,500  Level Orlando TRACON
Mon 02:44:51 PM 28.1333 -80.6833 344° North 176 203 5,500  Level Orlando TRACON
Mon 02:45:45 PM 28.1667 -80.7000 336° Northwest 180 207 5,500  Level Orlando TRACON
Mon 02:46:45 PM 28.2167 -80.7333 330° Northwest 180 207 5,500  Level Orlando TRACON
Mon 02:47:46 PM 28.2667 -80.7500 344° North 180 207 5,500  Level Orlando TRACON
Mon 02:48:46 PM 28.3167 -80.7667 344° North 179 206 5,500  Level Orlando TRACON
Mon 02:49:46 PM 28.3667 -80.8000 330° Northwest 179 206 5,500  Level Orlando TRACON
Mon 02:50:46 PM 28.4000 -80.8167 336° Northwest 179 206 5,500  Level Orlando TRACON
Mon 02:51:52 PM 28.4500 -80.8333 344° North 177 204 5,500  Level Orlando TRACON
Mon 02:52:53 PM 28.5000 -80.8500 344° North 178 205 5,500  Level Orlando TRACON
Mon 02:53:47 PM 28.5500 -80.8667 344° North 178 205 5,500  Level Orlando TRACON
Mon 02:54:53 PM 28.6000 -80.9000 330° Northwest 178 205 5,500 -238 Level Orlando TRACON
Mon 02:55:53 PM 28.6500 -80.9167 344° North 192 221 5,000 -496 Descending Orlando TRACON
Mon 02:56:54 PM 28.7000 -80.9333 344° North 197 227 4,500 -446 Descending Orlando TRACON
Mon 02:57:54 PM 28.7500 -80.9667 330° Northwest 198 228 4,100 -400 Descending Orlando TRACON
Mon 02:59:00 PM 28.8514 -80.9514 319° Northwest  Level FlightAware Approximate
Mon 03:06:00 PM 29.1667 -81.0500 348° North  Level FlightAware Approximate
Mon 03:07:00 PM 29.1799 -81.0581 348° North  Level Estimated
Mon 03:08:00 PM 29.1799 -81.0581 348° North  Level Estimated
Mon 03:09:00 PM 29.1799 -81.0581 348° North  Level Estimated
Mon 03:10:00 PM 29.1799 -81.0581 348° North  Level Estimated
Mon 03:11:00 PM 29.1799 -81.0581 348° North  Level Estimated
Mon 03:12:00 PM 29.1799 -81.0581 348° North  Level Estimated
Mon 03:13:00 PM 29.1799 -81.0581 348° North  Level Estimated
Mon 03:14:00 PM 29.1799 -81.0581 348° North  Level Estimated
Mon 03:15:00 PM 29.1799 -81.0581 348° North  Level Estimated
Mon 03:16:00 PM 29.1799 -81.0581 348° North  Level Estimated
Mon 03:17:00 PM 29.1799 -81.0581 348° North  Level Estimated
Mon 03:18:00 PM 29.1799 -81.0581 348° North  Level Estimated
Mon 03:19:00 PM 29.1799 -81.0581 348° North  Level Estimated
Mon 03:20:00 PM 29.1799 -81.0581 348° North  Level Estimated
Mon 03:21:00 PM 29.1799 -81.0581 348° North  Level Estimated
Mon 03:22:00 PM 29.1799 -81.0581 348° North  Level Estimated
Mon 03:23:00 PM 29.1799 -81.0581 348° North  Level Estimated
Mon 03:24:00 PM 29.1799 -81.0581 348° North  Level Estimated
Mon 03:25:00 PM 29.1799 -81.0581 348° North  Level Estimated
Mon 03:26:00 PM 29.1799 -81.0581 348° North  Level Estimated
Mon 03:27:00 PM 29.1799 -81.0581 348° North  Level Estimated

Login

Don't have an account? Register now (free) for customized features, flight alerts, and more!